createdAt,value
2019-02-14T00:03:22.619Z,30.33
2019-02-14T00:06:11.907Z,29.87
2019-02-14T00:08:55.789Z,31.10
2019-02-14T00:11:45.136Z,30.50
2019-02-14T00:17:22.598Z,31.33
2019-02-14T00:20:12.179Z,31.80
2019-02-14T00:23:01.860Z,32.05
2019-02-14T00:25:44.440Z,32.33
2019-02-14T00:31:35.981Z,33.53
2019-02-14T00:34:26.369Z,32.93
2019-02-14T00:37:09.763Z,32.73
2019-02-14T00:39:59.364Z,33.73
2019-02-14T00:42:41.676Z,33.90
2019-02-14T00:45:23.283Z,33.70
2019-02-14T00:48:13.018Z,30.87
2019-02-14T00:50:43.561Z,33.47
2019-02-14T00:53:33.235Z,33.10
2019-02-14T00:56:15.558Z,35.13
2019-02-14T00:59:18.709Z,33.17
2019-02-14T01:01:48.492Z,33.27
2019-02-14T01:04:19.053Z,30.70
2019-02-14T01:10:05.510Z,33.60
2019-02-14T01:12:47.532Z,33.02
2019-02-14T01:18:28.758Z,33.40
2019-02-14T01:20:58.722Z,33.37
2019-02-14T01:23:48.186Z,32.23
2019-02-14T01:26:30.520Z,32.70
2019-02-14T01:32:07.736Z,31.90
2019-02-14T01:35:10.837Z,33.93
2019-02-14T01:37:41.130Z,34.17
2019-02-14T01:40:30.803Z,33.70
2019-02-14T01:43:12.807Z,34.63
2019-02-14T01:45:54.428Z,34.13
2019-02-14T01:48:24.687Z,34.47
2019-02-14T01:51:14.579Z,35.23
2019-02-14T01:53:56.210Z,35.28
2019-02-14T01:59:40.320Z,33.53
2019-02-14T02:02:29.748Z,35.23
2019-02-14T02:05:11.635Z,34.93
2019-02-14T02:10:49.935Z,36.00
2019-02-14T02:13:39.321Z,36.48
2019-02-14T02:16:21.177Z,33.58
2019-02-14T02:19:10.556Z,35.15
2019-02-14T02:21:52.693Z,34.60
2019-02-14T02:24:42.063Z,35.20
2019-02-14T02:27:24.600Z,36.63
2019-02-14T02:30:14.552Z,37.10
2019-02-14T02:32:56.113Z,36.67
2019-02-14T02:38:49.637Z,36.13
2019-02-14T02:41:38.992Z,35.73
2019-02-14T02:44:21.211Z,36.60
2019-02-14T02:47:05.541Z,37.73
2019-02-14T02:53:05.033Z,36.53
2019-02-14T02:55:54.683Z,36.40
2019-02-14T02:58:44.230Z,36.87
2019-02-14T03:01:27.810Z,37.93
2019-02-14T03:07:06.262Z,36.27
2019-02-14T03:09:55.592Z,38.03
2019-02-14T03:12:37.295Z,37.17
2019-02-14T03:15:26.667Z,37.73
2019-02-14T03:21:05.121Z,38.23
2019-02-14T03:26:41.823Z,38.20
2019-02-14T03:29:31.266Z,38.33
2019-02-14T03:32:13.559Z,39.20
2019-02-14T03:35:03.039Z,38.93
2019-02-14T03:37:44.738Z,38.60
2019-02-14T03:40:34.270Z,39.80
2019-02-14T03:43:16.330Z,38.30
2019-02-14T03:45:58.573Z,39.77
2019-02-14T03:48:47.912Z,37.40
2019-02-14T03:51:32.043Z,37.30
2019-02-14T03:57:21.858Z,37.23
2019-02-14T04:00:13.674Z,36.70
2019-02-14T04:02:55.718Z,38.60
2019-02-14T04:05:44.996Z,39.77
2019-02-14T04:08:27.557Z,37.88
2019-02-14T04:14:14.787Z,38.40
2019-02-14T04:16:57.359Z,37.63
2019-02-14T04:19:47.824Z,38.05
2019-02-14T04:22:29.735Z,40.40
2019-02-14T04:28:05.787Z,39.63
2019-02-14T04:30:55.472Z,41.23
2019-02-14T04:33:37.323Z,37.37
2019-02-14T04:39:14.368Z,38.17
2019-02-14T04:44:52.815Z,38.53
2019-02-14T04:47:35.265Z,38.57
2019-02-14T04:53:20.211Z,38.67
2019-02-14T04:56:01.959Z,39.13
2019-02-14T04:58:51.633Z,39.40
2019-02-14T05:01:34.135Z,38.33
2019-02-14T05:04:23.497Z,39.87
2019-02-14T05:07:05.651Z,39.33
2019-02-14T05:09:55.315Z,38.03
2019-02-14T05:12:42.747Z,39.95
2019-02-14T05:15:28.691Z,38.87
2019-02-14T05:18:18.238Z,39.23
2019-02-14T05:21:01.005Z,41.27
2019-02-14T05:23:50.605Z,36.90
2019-02-14T05:26:33.154Z,39.10
2019-02-14T05:32:23.538Z,39.03
2019-02-14T05:38:15.736Z,38.70
2019-02-14T05:41:05.346Z,39.93
2019-02-14T05:43:47.823Z,39.77
2019-02-14T05:46:37.109Z,39.57
2019-02-14T05:49:20.161Z,42.17
2019-02-14T05:52:11.547Z,40.87
2019-02-14T05:58:01.082Z,40.20
2019-02-14T06:00:32.605Z,38.92
2019-02-14T06:03:03.361Z,41.00
2019-02-14T06:05:53.363Z,38.67
2019-02-14T06:08:35.160Z,38.70
2019-02-14T06:14:22.226Z,41.73
2019-02-14T06:17:04.670Z,39.48
2019-02-14T06:19:54.342Z,41.50
2019-02-14T06:22:57.760Z,40.67
2019-02-14T06:25:27.646Z,38.95
2019-02-14T06:31:14.839Z,40.40
2019-02-14T06:33:56.920Z,40.67
2019-02-14T06:36:27.386Z,39.53
2019-02-14T06:38:59.144Z,40.78
2019-02-14T06:47:33.661Z,40.93
2019-02-14T06:50:23.439Z,40.83
2019-02-14T06:53:06.788Z,40.10
2019-02-14T06:58:33.099Z,38.28
2019-02-14T07:01:16.961Z,39.47
2019-02-14T07:04:06.251Z,39.53
2019-02-14T07:06:48.387Z,39.30
2019-02-14T07:09:18.945Z,40.85
2019-02-14T07:12:08.351Z,38.83
2019-02-14T07:14:57.729Z,39.77
2019-02-14T07:17:40.271Z,39.33
2019-02-14T07:20:29.602Z,39.23
2019-02-14T07:23:11.521Z,39.83
2019-02-14T07:26:00.860Z,39.17
2019-02-14T07:28:42.906Z,38.80
2019-02-14T07:31:32.226Z,41.50
2019-02-14T07:34:14.191Z,41.50
2019-02-14T07:40:04.763Z,39.00
2019-02-14T07:42:54.105Z,40.15
2019-02-14T07:45:35.811Z,37.70
2019-02-14T07:48:19.045Z,39.50
2019-02-14T07:51:22.450Z,40.50
2019-02-14T07:53:51.686Z,39.63
2019-02-14T07:59:29.812Z,38.75
2019-02-14T08:02:00.267Z,39.33
2019-02-14T08:07:44.811Z,39.10
2019-02-14T08:10:27.682Z,39.30
2019-02-14T08:13:17.376Z,38.80
2019-02-14T08:15:59.739Z,40.07
2019-02-14T08:21:36.771Z,38.50
2019-02-14T08:24:07.280Z,38.13
2019-02-14T08:26:56.626Z,40.03
2019-02-14T08:32:33.303Z,37.70
2019-02-14T08:35:22.977Z,37.67
2019-02-14T08:38:05.788Z,36.68
2019-02-14T08:43:43.268Z,35.80
2019-02-14T08:46:47.549Z,35.40
2019-02-14T08:49:18.048Z,38.53
2019-02-14T08:54:54.694Z,36.27
2019-02-14T08:57:44.674Z,36.42
2019-02-14T09:00:26.919Z,36.33
2019-02-14T09:02:57.632Z,36.73
2019-02-14T09:08:43.236Z,36.13
2019-02-14T09:14:28.021Z,37.67
2019-02-14T09:17:10.307Z,35.67
2019-02-14T09:19:59.786Z,36.43
2019-02-14T09:22:42.299Z,36.73
2019-02-14T09:25:32.296Z,38.57
2019-02-14T09:28:13.941Z,37.17
2019-02-14T09:31:02.934Z,37.48
2019-02-14T09:33:44.410Z,36.13
2019-02-14T09:39:23.570Z,37.63
2019-02-14T09:42:12.898Z,36.60
2019-02-14T09:44:55.915Z,36.17
2019-02-14T09:47:40.168Z,37.70
2019-02-14T09:50:29.334Z,38.27
2019-02-14T09:53:11.265Z,38.13
2019-02-14T09:56:00.609Z,37.47
2019-02-14T09:58:42.340Z,37.40
2019-02-14T10:04:40.009Z,36.67
2019-02-14T10:07:29.353Z,36.27
2019-02-14T10:10:18.895Z,36.73
2019-02-14T10:13:01.514Z,36.57
2019-02-14T10:15:50.909Z,37.80
2019-02-14T10:18:32.827Z,36.55
2019-02-14T10:21:22.414Z,35.13
2019-02-14T10:24:04.197Z,34.53
2019-02-14T10:26:53.559Z,35.75
2019-02-14T10:29:36.316Z,35.03
2019-02-14T10:32:25.754Z,35.83
2019-02-14T10:35:08.144Z,34.40
2019-02-14T10:37:57.527Z,36.10
2019-02-14T10:40:40.497Z,35.80
2019-02-14T10:43:29.873Z,36.07
2019-02-14T10:46:12.159Z,35.23
2019-02-14T10:49:02.499Z,34.97
2019-02-14T10:51:45.853Z,34.63
2019-02-14T10:57:34.643Z,33.53
2019-02-14T11:00:18.578Z,33.83
2019-02-14T11:05:58.656Z,34.43
2019-02-14T11:08:48.102Z,31.50
2019-02-14T11:11:30.831Z,33.40
2019-02-14T11:14:28.703Z,31.53
2019-02-14T11:17:04.820Z,31.77
2019-02-14T11:19:54.496Z,31.23
2019-02-14T11:22:25.213Z,31.77
2019-02-14T11:25:34.209Z,31.77
2019-02-14T11:28:16.620Z,30.37
2019-02-14T11:31:25.184Z,30.20
2019-02-14T11:34:08.087Z,29.83
2019-02-14T11:39:47.548Z,30.05
2019-02-14T11:42:39.255Z,32.17
2019-02-14T11:45:23.542Z,31.67
2019-02-14T11:48:13.199Z,31.67
2019-02-14T11:50:55.128Z,30.13
2019-02-14T11:56:32.075Z,25.43
2019-02-14T11:59:23.336Z,27.93
2019-02-14T12:02:06.118Z,28.37
2019-02-14T12:04:56.131Z,26.85
2019-02-14T12:07:39.020Z,26.00
2019-02-14T12:10:28.460Z,25.17
2019-02-14T12:13:10.826Z,23.97
2019-02-14T12:16:00.296Z,23.73
2019-02-14T12:18:43.017Z,23.60
2019-02-14T12:21:32.607Z,22.13
2019-02-14T12:24:14.706Z,20.60
2019-02-14T12:27:04.371Z,21.07
2019-02-14T12:29:46.615Z,20.43
2019-02-14T12:32:36.282Z,20.68
2019-02-14T12:35:18.838Z,20.57
2019-02-14T12:38:09.080Z,20.60
2019-02-14T12:40:52.032Z,19.27
2019-02-14T12:43:22.597Z,18.70
2019-02-14T12:46:04.637Z,18.23
2019-02-14T12:51:55.645Z,18.90
2019-02-14T12:54:45.357Z,19.10
2019-02-14T12:57:27.807Z,17.40
2019-02-14T13:00:18.900Z,17.23
2019-02-14T13:03:00.849Z,16.47
2019-02-14T13:05:50.191Z,16.60
2019-02-14T13:08:31.877Z,15.57
2019-02-14T13:11:21.390Z,15.73
2019-02-14T13:14:03.302Z,15.60
2019-02-14T13:16:52.660Z,15.90
2019-02-14T13:19:35.622Z,14.93
2019-02-14T13:22:24.988Z,15.03
2019-02-14T13:25:07.751Z,15.15
2019-02-14T13:27:57.824Z,15.37
2019-02-14T13:30:40.693Z,15.80
2019-02-14T13:33:30.186Z,16.50
2019-02-14T13:36:12.366Z,16.07
2019-02-14T13:42:09.348Z,15.53
2019-02-14T13:44:51.368Z,15.72
2019-02-14T13:47:41.188Z,16.67
2019-02-14T13:50:23.219Z,16.20
2019-02-14T13:53:12.664Z,16.45
2019-02-14T13:55:54.347Z,17.10
2019-02-14T13:58:43.801Z,16.00
2019-02-14T14:01:27.869Z,16.30
2019-02-14T14:04:17.405Z,17.23
2019-02-14T14:06:59.760Z,16.23
2019-02-14T14:12:38.970Z,16.20
2019-02-14T14:18:17.434Z,15.03
2019-02-14T14:21:06.803Z,14.50
2019-02-14T14:23:48.976Z,13.47
2019-02-14T14:29:41.378Z,15.47
2019-02-14T14:35:32.047Z,13.50
2019-02-14T14:38:21.362Z,16.43
2019-02-14T14:41:03.640Z,14.90
2019-02-14T14:44:05.557Z,16.07
2019-02-14T14:46:54.882Z,15.08
2019-02-14T14:49:44.750Z,15.83
2019-02-14T14:52:27.342Z,16.10
2019-02-14T14:58:18.019Z,15.28
2019-02-14T15:01:07.909Z,14.00
2019-02-14T15:03:38.325Z,14.23
2019-02-14T15:06:29.608Z,14.10
2019-02-14T15:09:11.960Z,14.00
2019-02-14T15:12:01.329Z,13.60
2019-02-14T15:14:43.949Z,13.97
2019-02-14T15:17:33.365Z,13.70
2019-02-14T15:20:15.847Z,13.50
2019-02-14T15:23:05.197Z,13.33
2019-02-14T15:25:47.043Z,13.63
2019-02-14T15:28:50.215Z,13.30
2019-02-14T15:31:20.194Z,13.30
2019-02-14T15:34:09.857Z,13.83
2019-02-14T15:36:52.142Z,12.78
2019-02-14T15:42:42.475Z,13.47
2019-02-14T15:45:12.860Z,13.33
2019-02-14T15:47:57.377Z,13.60
2019-02-14T15:50:46.738Z,14.40
2019-02-14T15:53:28.642Z,14.03
2019-02-14T15:56:18.064Z,15.37
2019-02-14T15:59:00.224Z,15.20
2019-02-14T16:02:04.397Z,15.07
2019-02-14T16:04:34.596Z,15.40
2019-02-14T16:07:24.474Z,15.17
2019-02-14T16:10:06.207Z,16.70
2019-02-14T16:15:43.453Z,14.80
2019-02-14T16:18:32.984Z,13.63
2019-02-14T16:21:15.890Z,15.00
2019-02-14T16:24:05.230Z,15.23
2019-02-14T16:26:47.172Z,15.70
2019-02-14T16:32:25.185Z,15.27
2019-02-14T16:35:14.532Z,14.97
2019-02-14T16:37:46.527Z,16.70
2019-02-14T16:43:36.998Z,17.43
2019-02-14T16:49:27.901Z,16.73
2019-02-14T16:52:09.773Z,14.07
2019-02-14T16:55:01.437Z,16.63
2019-02-14T16:57:45.497Z,14.68
2019-02-14T17:03:26.118Z,15.13
2019-02-14T17:09:18.823Z,12.80
2019-02-14T17:12:08.540Z,13.27
2019-02-14T17:14:50.599Z,15.17
2019-02-14T17:17:39.959Z,15.60
2019-02-14T17:20:21.979Z,15.07
2019-02-14T17:23:11.647Z,14.83
2019-02-14T17:25:54.280Z,16.13
2019-02-14T17:31:46.904Z,14.97
2019-02-14T17:34:36.557Z,14.70
2019-02-14T17:37:18.710Z,16.17
2019-02-14T17:40:08.310Z,16.50
2019-02-14T17:42:52.490Z,16.77
2019-02-14T17:45:34.549Z,17.00
2019-02-14T17:48:23.931Z,17.62
2019-02-14T17:51:06.566Z,18.23
2019-02-14T17:53:55.969Z,27.87
2019-02-14T17:56:37.854Z,23.87
2019-02-14T18:02:36.907Z,23.80
2019-02-14T18:05:08.684Z,23.57
2019-02-14T18:08:00.278Z,22.23
2019-02-14T18:10:42.596Z,21.23
2019-02-14T18:13:32.083Z,19.83
2019-02-14T18:16:14.144Z,19.27
2019-02-14T18:19:05.829Z,19.33
2019-02-14T18:21:47.269Z,18.30
2019-02-14T18:27:23.986Z,17.47
2019-02-14T18:30:13.438Z,19.17
2019-02-14T18:32:55.106Z,20.73
2019-02-14T18:35:44.690Z,20.77
2019-02-14T18:38:26.522Z,19.05
2019-02-14T18:41:15.900Z,19.47
2019-02-14T18:43:58.186Z,20.10
2019-02-14T18:46:39.791Z,18.50
2019-02-14T18:49:29.175Z,16.67
2019-02-14T18:52:12.856Z,17.83
2019-02-14T18:55:02.133Z,17.50
2019-02-14T18:57:44.526Z,16.67
2019-02-14T19:03:36.703Z,17.77
2019-02-14T19:06:40.125Z,18.03
2019-02-14T19:09:12.705Z,19.70
2019-02-14T19:12:02.080Z,19.47
2019-02-14T19:14:44.608Z,19.05
2019-02-14T19:20:21.296Z,18.63
2019-02-14T19:23:11.030Z,17.73
2019-02-14T19:25:53.496Z,17.63
2019-02-14T19:28:42.915Z,19.10
2019-02-14T19:31:25.212Z,24.60
2019-02-14T19:33:56.706Z,28.30
2019-02-14T19:39:47.812Z,22.67
2019-02-14T19:42:37.111Z,24.65
2019-02-14T19:45:19.631Z,25.10
2019-02-14T19:48:01.293Z,26.00
2019-02-14T19:53:45.578Z,24.77
2019-02-14T19:56:35.196Z,24.77
2019-02-14T19:59:17.500Z,22.53
2019-02-14T20:02:07.131Z,23.57
2019-02-14T20:04:50.953Z,23.83
2019-02-14T20:07:40.559Z,24.63
2019-02-14T20:10:23.345Z,23.23
2019-02-14T20:13:12.939Z,23.10
2019-02-14T20:15:55.240Z,22.15
2019-02-14T20:18:44.613Z,25.17
2019-02-14T20:21:26.653Z,22.70
2019-02-14T20:24:15.987Z,22.93
2019-02-14T20:26:59.493Z,24.63
2019-02-14T20:32:52.025Z,25.87
2019-02-14T20:35:43.712Z,25.17
2019-02-14T20:38:14.479Z,23.22
2019-02-14T20:41:04.078Z,23.87
2019-02-14T20:43:46.469Z,22.13
2019-02-14T20:46:35.863Z,23.67
2019-02-14T20:49:17.952Z,26.30
2019-02-14T20:55:09.459Z,28.32
2019-02-14T21:01:03.773Z,22.77
2019-02-14T21:04:07.228Z,20.85
2019-02-14T21:06:36.809Z,20.13
2019-02-14T21:12:27.594Z,19.27
2019-02-14T21:15:17.234Z,17.63
2019-02-14T21:18:01.063Z,18.03
2019-02-14T21:23:51.902Z,17.93
2019-02-14T21:26:43.576Z,20.70
2019-02-14T21:29:25.377Z,21.80
2019-02-14T21:35:17.837Z,19.30
2019-02-14T21:38:07.500Z,18.97
2019-02-14T21:40:49.670Z,18.60
2019-02-14T21:43:53.146Z,18.30
2019-02-14T21:46:25.197Z,18.33
2019-02-14T21:55:17.720Z,17.10
2019-02-14T22:01:12.322Z,17.13
2019-02-14T22:04:01.680Z,18.20
2019-02-14T22:06:44.221Z,17.33
2019-02-14T22:09:33.782Z,18.50
2019-02-14T22:12:16.044Z,18.20
2019-02-14T22:18:07.593Z,18.63
2019-02-14T22:20:37.825Z,18.00
2019-02-14T22:23:27.691Z,18.17
2019-02-14T22:26:36.452Z,18.53
2019-02-14T22:29:18.157Z,17.87
2019-02-14T22:35:11.025Z,16.80
2019-02-14T22:38:00.400Z,17.10
2019-02-14T22:40:42.966Z,16.33
2019-02-14T22:43:32.315Z,16.47
2019-02-14T22:46:14.565Z,16.30
2019-02-14T22:48:56.377Z,16.25
2019-02-14T22:54:34.928Z,16.77
2019-02-14T22:57:24.235Z,16.90
2019-02-14T23:00:10.123Z,16.63
2019-02-14T23:02:59.908Z,15.87
2019-02-14T23:05:42.612Z,16.20
2019-02-14T23:08:51.693Z,14.37
2019-02-14T23:11:34.624Z,15.30
2019-02-14T23:17:25.302Z,15.30
2019-02-14T23:20:14.951Z,15.37
2019-02-14T23:22:57.169Z,15.70
2019-02-14T23:28:48.857Z,16.57
2019-02-14T23:34:45.024Z,14.38
2019-02-14T23:37:36.631Z,14.30
2019-02-14T23:40:28.989Z,14.37
2019-02-14T23:43:10.928Z,13.83
2019-02-14T23:46:00.598Z,14.07
2019-02-14T23:48:30.913Z,13.53
2019-02-14T23:51:20.576Z,14.40
2019-02-14T23:54:02.566Z,14.57
2019-02-14T23:56:52.162Z,14.60
2019-02-14T23:59:34.510Z,14.83
